Time;durP1;ratioP1;P1;durP2;ratioP2;P2;SDS_P1;SDS_P2;PMS_P1;PMS_P2;Temp;Humidity;BMP_temperature;BMP_pressure;BME280_temperature;BME280_humidity;BME280_pressure;Samples;Min_cycle;Max_cycle;Signal;HPM_P1;HPM_P2
2022/12/13 00:01:22;;;;;;;53.70;22.75;;;-3.30;99.90;;;;;;5034319;28;20080;-83
2022/12/13 00:03:51;;;;;;;53.20;21.98;;;-1.80;99.90;;;;;;5038826;28;20041;-83
2022/12/13 00:06:17;;;;;;;54.72;21.33;;;-1.90;99.90;;;;;;5021786;28;20041;-83
2022/12/13 00:08:43;;;;;;;48.80;20.98;;;-3.40;99.90;;;;;;5029407;28;20095;-81
2022/12/13 00:11:11;;;;;;;50.15;21.38;;;-3.40;99.90;;;;;;5037207;28;20049;-82
2022/12/13 00:13:38;;;;;;;45.80;20.48;;;-3.40;99.90;;;;;;5015269;28;20041;-81
2022/12/13 00:16:07;;;;;;;49.05;20.02;;;-3.50;99.90;;;;;;5034272;28;20041;-82
2022/12/13 00:18:33;;;;;;;48.53;20.98;;;-3.40;99.90;;;;;;5040956;28;20045;-82
2022/12/13 00:21:02;;;;;;;48.85;20.35;;;-2.50;99.90;;;;;;5017453;28;20045;-82
2022/12/13 00:23:28;;;;;;;52.05;20.98;;;-1.80;99.90;;;;;;5037148;28;20473;-82
2022/12/13 00:26:10;;;;;;;47.97;20.08;;;-3.00;99.90;;;;;;5034895;28;20043;-81
2022/12/13 00:28:40;;;;;;;46.28;20.15;;;-1.80;99.90;;;;;;5022790;28;20103;-81
2022/12/13 00:31:07;;;;;;;47.38;19.83;;;-3.60;99.90;;;;;;5020947;28;20129;-80
2022/12/13 00:33:33;;;;;;;42.28;19.63;;;-3.50;99.90;;;;;;5036306;28;20095;-83
2022/12/13 00:36:01;;;;;;;48.05;20.17;;;-2.60;99.90;;;;;;5036123;28;20071;-81
2022/12/13 00:38:27;;;;;;;48.03;19.98;;;-3.50;99.90;;;;;;5030332;28;20459;-81
2022/12/13 00:40:53;;;;;;;47.67;21.02;;;-3.50;99.90;;;;;;5020925;28;20075;-81
2022/12/13 00:43:19;;;;;;;48.53;21.27;;;-2.80;99.90;;;;;;5039073;28;20049;-81
2022/12/13 00:45:44;;;;;;;50.38;20.40;;;-3.50;99.90;;;;;;5042364;28;20037;-81
2022/12/13 00:48:10;;;;;;;44.20;19.55;;;-3.60;99.90;;;;;;5034755;28;20506;-81
2022/12/13 00:50:37;;;;;;;47.55;21.15;;;-2.20;99.90;;;;;;5014641;28;20064;-80
2022/12/13 00:53:04;;;;;;;50.10;20.45;;;-2.20;99.90;;;;;;5014405;28;20141;-80
2022/12/13 00:55:30;;;;;;;48.05;20.00;;;-3.80;99.90;;;;;;4999704;28;20037;-81
2022/12/13 00:57:56;;;;;;;49.90;21.58;;;-3.60;99.90;;;;;;5019914;28;20248;-81
2022/12/13 01:00:24;;;;;;;45.25;19.80;;;-2.10;99.90;;;;;;5017717;28;20049;-81
2022/12/13 01:02:51;;;;;;;47.30;19.98;;;-3.80;99.90;;;;;;5014100;28;20096;-82
2022/12/13 01:05:18;;;;;;;46.08;20.25;;;-1.80;99.90;;;;;;4999241;28;20080;-81
2022/12/13 01:07:44;;;;;;;48.15;19.58;;;-3.70;99.90;;;;;;4990016;28;20438;-81
2022/12/13 01:10:11;;;;;;;51.67;20.08;;;-3.70;99.90;;;;;;5016207;28;20502;-82
2022/12/13 01:12:37;;;;;;;45.03;18.88;;;-3.70;99.90;;;;;;4988579;28;20506;-81
2022/12/13 01:15:04;;;;;;;46.97;18.95;;;-3.70;99.90;;;;;;5012065;28;20056;-81
2022/12/13 01:17:30;;;;;;;44.50;20.42;;;-3.70;99.90;;;;;;5011850;28;20046;-82
2022/12/13 01:19:56;;;;;;;50.70;20.30;;;-3.70;99.90;;;;;;5009181;28;20057;-81
2022/12/13 01:22:21;;;;;;;47.97;20.95;;;-3.70;99.90;;;;;;5008557;28;20062;-81
2022/12/13 01:24:47;;;;;;;47.50;20.50;;;-3.70;99.90;;;;;;5015860;28;20040;-81
2022/12/13 01:27:13;;;;;;;43.95;19.60;;;-3.80;99.90;;;;;;4988515;28;20115;-80
2022/12/13 01:29:39;;;;;;;49.50;19.83;;;-3.70;99.90;;;;;;5007954;28;20467;-81
2022/12/13 01:32:08;;;;;;;50.38;19.70;;;-3.70;99.90;;;;;;5012433;28;20168;-81
2022/12/13 01:34:33;;;;;;;46.40;20.33;;;-3.80;99.90;;;;;;5002569;28;20056;-81
2022/12/13 01:36:59;;;;;;;46.63;19.85;;;-3.70;99.90;;;;;;5020849;28;20041;-81
2022/12/13 01:39:25;;;;;;;48.53;20.77;;;-3.10;99.90;;;;;;5005916;28;20052;-82
2022/12/13 01:42:02;;;;;;;47.67;20.05;;;-3.80;99.90;;;;;;4996434;28;20049;-81
2022/12/13 01:44:59;;;;;;;51.13;19.02;;;-2.90;99.90;;;;;;5002960;28;20399;-81
2022/12/13 01:47:47;;;;;;;43.25;19.10;;;-3.80;99.90;;;;;;5010019;28;20161;-81
2022/12/13 01:50:22;;;;;;;42.25;18.65;;;-3.30;99.90;;;;;;4995846;28;20045;-81
2022/12/13 01:52:49;;;;;;;45.80;19.10;;;-3.80;99.90;;;;;;5055059;28;20051;-81
2022/12/13 01:55:17;;;;;;;42.42;19.17;;;-3.90;99.90;;;;;;5028806;28;20048;-81
2022/12/13 01:57:46;;;;;;;44.03;17.83;;;-3.90;99.90;;;;;;5011118;28;20075;-81
2022/12/13 02:00:12;;;;;;;46.88;20.42;;;-3.90;99.90;;;;;;5033463;28;20056;-81
2022/12/13 02:02:39;;;;;;;43.00;18.77;;;-3.90;99.90;;;;;;5023251;28;20464;-80
2022/12/13 02:05:07;;;;;;;50.63;20.27;;;-4.00;99.90;;;;;;5053282;28;20044;-81
2022/12/13 02:07:36;;;;;;;48.72;19.30;;;-3.90;99.90;;;;;;5029435;28;20051;-81
2022/12/13 02:10:05;;;;;;;41.60;18.30;;;-4.00;99.90;;;;;;5038348;28;20048;-80
2022/12/13 02:12:33;;;;;;;44.45;18.45;;;-4.80;99.90;;;;;;5071192;28;20069;-80
2022/12/13 02:15:10;;;;;;;46.30;19.52;;;-2.50;99.90;;;;;;5045110;28;20036;-80
2022/12/13 02:17:45;;;;;;;41.78;18.55;;;-5.40;99.90;;;;;;5035873;28;20516;-81
2022/12/13 02:20:31;;;;;;;49.83;20.10;;;-4.00;99.90;;;;;;5024236;28;20041;-80
2022/12/13 02:23:29;;;;;;;48.53;18.83;;;-3.00;99.90;;;;;;5041665;28;20044;-81
2022/12/13 02:26:12;;;;;;;45.17;18.55;;;-4.10;99.90;;;;;;5029049;28;20020;-81
2022/12/13 02:29:09;;;;;;;40.28;18.35;;;-4.00;99.90;;;;;;5040278;28;20101;-81
2022/12/13 02:31:51;;;;;;;40.90;18.77;;;-4.10;99.90;;;;;;5038663;28;20111;-81
2022/12/13 02:34:28;;;;;;;42.10;18.35;;;-4.10;99.90;;;;;;5022416;28;20126;-80
2022/12/13 02:37:11;;;;;;;42.25;17.75;;;-4.40;99.90;;;;;;5017976;28;20040;-80
2022/12/13 02:39:48;;;;;;;40.60;17.85;;;-4.20;99.90;;;;;;5038835;28;20045;-80
2022/12/13 02:42:25;;;;;;;45.42;18.85;;;-4.60;99.90;;;;;;5024245;28;20076;-81
2022/12/13 02:45:02;;;;;;;42.75;19.27;;;-4.10;99.90;;;;;;5036445;28;20037;-81
2022/12/13 02:47:29;;;;;;;44.75;20.70;;;-5.00;99.90;;;;;;5020391;28;20066;-81
2022/12/13 02:49:58;;;;;;;43.30;18.45;;;-2.20;99.90;;;;;;5040147;28;20048;-82
2022/12/13 02:52:26;;;;;;;43.67;18.70;;;-3.30;99.90;;;;;;5016505;28;20072;-81
2022/12/13 02:54:56;;;;;;;44.65;19.55;;;-3.10;99.90;;;;;;5015537;28;20036;-81
2022/12/13 02:57:40;;;;;;;41.08;18.75;;;-4.20;99.90;;;;;;5032399;28;20048;-81
2022/12/13 03:00:11;;;;;;;44.08;18.50;;;-4.30;99.90;;;;;;5028530;28;20037;-81
2022/12/13 03:02:45;;;;;;;37.05;17.77;;;-4.20;99.90;;;;;;5026721;28;20047;-80
2022/12/13 03:08:17;;;;;;;44.38;18.25;;;-3.50;99.90;;;;;;5056686;28;20044;-81
2022/12/13 03:11:04;;;;;;;39.88;18.83;;;-4.30;99.90;;;;;;5037066;28;20037;-81
2022/12/13 03:13:53;;;;;;;38.30;17.27;;;-4.30;99.90;;;;;;5034298;28;20418;-81
2022/12/13 03:16:38;;;;;;;45.55;18.58;;;-3.40;99.90;;;;;;5019063;28;20540;-81
2022/12/13 03:19:08;;;;;;;45.30;18.13;;;-4.30;99.90;;;;;;5031589;28;20523;-81
2022/12/13 03:22:04;;;;;;;40.15;17.92;;;-3.00;99.90;;;;;;5031840;28;20087;-81
2022/12/13 03:24:29;;;;;;;47.70;18.80;;;-4.30;99.90;;;;;;5032241;28;20110;-81
2022/12/13 03:26:55;;;;;;;46.78;20.05;;;-4.40;99.90;;;;;;5038265;28;20791;-80
2022/12/13 03:29:22;;;;;;;42.42;18.05;;;-4.20;99.90;;;;;;5037879;28;20131;-81
2022/12/13 03:31:48;;;;;;;43.42;18.73;;;-4.40;99.90;;;;;;5042219;28;20075;-81
2022/12/13 03:34:14;;;;;;;37.72;17.55;;;-4.40;99.90;;;;;;5024093;28;21050;-81
2022/12/13 03:36:40;;;;;;;45.15;18.23;;;-4.40;99.90;;;;;;5036375;28;20037;-81
2022/12/13 03:39:06;;;;;;;44.40;18.35;;;-4.60;99.90;;;;;;5015686;28;20168;-81
2022/12/13 03:41:32;;;;;;;39.50;18.05;;;-3.20;99.90;;;;;;5030007;28;20119;-81
2022/12/13 03:44:02;;;;;;;37.63;16.38;;;-4.50;99.90;;;;;;5034477;28;20074;-81
2022/12/13 03:46:28;;;;;;;42.63;17.98;;;-4.50;99.90;;;;;;5058283;28;20036;-81
2022/12/13 03:48:54;;;;;;;41.42;16.33;;;-3.20;99.90;;;;;;5022913;28;20112;-81
2022/12/13 03:51:20;;;;;;;38.85;17.23;;;-4.60;99.90;;;;;;5023341;28;20061;-82
2022/12/13 03:53:46;;;;;;;38.28;17.65;;;-4.70;99.90;;;;;;5038870;28;20071;-81
2022/12/13 03:56:12;;;;;;;40.33;17.73;;;-4.50;99.90;;;;;;5035904;28;20670;-82
2022/12/13 03:58:40;;;;;;;40.53;17.20;;;-3.80;99.90;;;;;;5034091;28;20128;-82
2022/12/13 04:01:12;;;;;;;39.78;17.98;;;-3.80;99.90;;;;;;5035311;28;20048;-81
2022/12/13 04:03:39;;;;;;;40.35;17.92;;;-4.50;99.90;;;;;;5021022;28;20049;-81
2022/12/13 04:06:09;;;;;;;44.42;18.70;;;-4.50;99.90;;;;;;5021829;28;20166;-82
2022/12/13 04:08:36;;;;;;;41.22;18.02;;;-4.50;99.90;;;;;;5033739;28;20069;-81
2022/12/13 04:13:47;;;;;;;41.85;18.08;;;-4.50;99.90;;;;;;5041408;28;20723;-81
2022/12/13 04:16:13;;;;;;;45.13;17.40;;;-4.60;99.90;;;;;;5025140;28;20040;-81
2022/12/13 04:18:39;;;;;;;42.92;17.65;;;-4.60;99.90;;;;;;5020707;28;20526;-81
2022/12/13 04:21:04;;;;;;;38.05;18.17;;;-4.60;99.90;;;;;;5035483;28;20041;-80
2022/12/13 04:23:30;;;;;;;38.55;17.08;;;-4.60;99.90;;;;;;5021501;28;20048;-81
2022/12/13 04:25:58;;;;;;;45.50;18.90;;;-4.60;99.90;;;;;;5039139;28;20091;-81
2022/12/13 04:28:24;;;;;;;41.95;18.27;;;-4.60;99.90;;;;;;5040770;28;20410;-82
2022/12/13 04:30:50;;;;;;;39.47;17.77;;;-4.60;99.90;;;;;;5040550;28;20033;-82
2022/12/13 04:33:16;;;;;;;41.45;17.67;;;-3.40;99.90;;;;;;5034678;28;20051;-82
2022/12/13 04:35:42;;;;;;;43.33;16.77;;;-4.60;99.90;;;;;;5022714;28;20033;-82
2022/12/13 04:38:10;;;;;;;43.03;17.50;;;-3.00;99.90;;;;;;5021657;28;20526;-82
2022/12/13 04:40:36;;;;;;;38.22;16.33;;;-5.50;99.90;;;;;;5024857;28;20060;-81
2022/12/13 04:43:02;;;;;;;44.20;18.48;;;-3.10;99.90;;;;;;5022880;28;20037;-82
2022/12/13 04:45:27;;;;;;;40.17;17.38;;;-3.10;99.90;;;;;;5039185;28;20080;-82
2022/12/13 04:47:53;;;;;;;39.97;16.60;;;-3.80;99.90;;;;;;5039481;28;20057;-81
2022/12/13 04:50:20;;;;;;;40.33;19.42;;;-4.70;99.90;;;;;;5027289;28;20060;-82
2022/12/13 04:52:46;;;;;;;39.58;16.83;;;-4.70;99.90;;;;;;5045646;28;20048;-81
2022/12/13 04:55:12;;;;;;;41.75;17.90;;;-2.40;99.90;;;;;;5040074;28;20397;-81
2022/12/13 04:57:38;;;;;;;47.33;19.02;;;-4.70;99.90;;;;;;5025097;28;20049;-82
2022/12/13 05:00:10;;;;;;;44.95;18.02;;;-4.70;99.90;;;;;;5039271;28;20063;-82
2022/12/13 05:02:36;;;;;;;38.03;17.15;;;-4.60;99.90;;;;;;5043174;28;20051;-82
2022/12/13 05:05:02;;;;;;;40.95;17.80;;;-4.70;99.90;;;;;;5029049;28;20052;-82
2022/12/13 05:07:28;;;;;;;43.25;18.45;;;-4.60;99.90;;;;;;5040597;28;20041;-81
2022/12/13 05:09:55;;;;;;;38.97;16.98;;;-4.60;99.90;;;;;;5044471;28;20043;-80
2022/12/13 05:12:21;;;;;;;39.70;18.05;;;-4.70;99.90;;;;;;5038212;28;21016;-80
2022/12/13 05:14:47;;;;;;;35.55;16.95;;;-4.10;99.90;;;;;;5025121;28;20033;-81
2022/12/13 05:17:13;;;;;;;39.60;17.80;;;-4.40;99.90;;;;;;5042568;28;20060;-80
2022/12/13 05:19:39;;;;;;;40.53;16.30;;;-4.70;99.90;;;;;;5056084;28;20897;-81
2022/12/13 05:22:14;;;;;;;44.30;18.85;;;-3.80;99.90;;;;;;5024439;28;20044;-81
2022/12/13 05:24:43;;;;;;;45.75;18.70;;;-4.70;99.90;;;;;;5039043;28;20073;-81
2022/12/13 05:27:10;;;;;;;38.42;17.10;;;-2.90;99.90;;;;;;5034117;28;20048;-81
2022/12/13 05:29:37;;;;;;;42.00;18.05;;;-4.70;99.90;;;;;;5021922;28;20524;-81
2022/12/13 05:32:03;;;;;;;38.83;17.17;;;-3.40;99.90;;;;;;5014760;28;20041;-80
2022/12/13 05:34:29;;;;;;;37.58;17.00;;;-4.70;99.90;;;;;;5035444;28;20054;-81
2022/12/13 05:36:54;;;;;;;41.15;18.15;;;-4.70;99.90;;;;;;5061522;28;20044;-81
2022/12/13 05:39:20;;;;;;;41.95;19.02;;;-4.70;99.90;;;;;;5025441;28;20037;-81
2022/12/13 05:41:46;;;;;;;38.58;18.00;;;-4.70;99.90;;;;;;5040425;28;20048;-81
2022/12/13 05:44:13;;;;;;;46.53;18.83;;;-4.70;99.90;;;;;;5023159;28;20075;-81
2022/12/13 05:46:40;;;;;;;42.35;16.52;;;-4.70;99.90;;;;;;5023541;28;20037;-81
2022/12/13 05:49:06;;;;;;;42.42;18.10;;;-3.60;99.90;;;;;;5020592;28;20046;-80
2022/12/13 05:51:32;;;;;;;35.58;16.90;;;-4.70;99.90;;;;;;5032615;28;20142;-81
2022/12/13 05:53:58;;;;;;;41.88;18.77;;;-4.70;99.90;;;;;;5022547;28;20128;-81
2022/12/13 05:56:24;;;;;;;40.38;19.23;;;-4.60;99.90;;;;;;5029658;28;20134;-81
2022/12/13 05:58:50;;;;;;;34.88;16.45;;;-4.70;99.90;;;;;;5011389;28;20127;-81
2022/12/13 06:01:16;;;;;;;38.83;16.88;;;-3.70;99.90;;;;;;5052858;28;20049;-81
2022/12/13 06:03:42;;;;;;;38.50;17.85;;;-3.50;99.90;;;;;;5016810;28;20056;-81
2022/12/13 06:06:10;;;;;;;44.65;19.05;;;-4.80;99.90;;;;;;5011956;28;20053;-81
2022/12/13 06:08:36;;;;;;;38.67;17.73;;;-4.70;99.90;;;;;;5017798;28;20824;-81
2022/12/13 06:11:04;;;;;;;35.53;17.60;;;-4.80;99.90;;;;;;5014015;28;20926;-81
2022/12/13 06:13:30;;;;;;;45.42;19.15;;;-4.70;99.90;;;;;;5029671;28;20044;-81
2022/12/13 06:16:04;;;;;;;37.38;17.85;;;-4.70;99.90;;;;;;5017481;28;20052;-81
2022/12/13 06:18:32;;;;;;;39.40;17.77;;;-4.70;99.90;;;;;;5032771;28;20099;-81
2022/12/13 06:21:00;;;;;;;38.63;17.35;;;-4.10;99.90;;;;;;5027581;28;20045;-81
2022/12/13 06:23:27;;;;;;;38.25;17.75;;;-4.70;99.90;;;;;;5030072;28;20203;-82
2022/12/13 06:25:53;;;;;;;36.45;17.30;;;-4.70;99.90;;;;;;5009544;28;20057;-81
2022/12/13 06:28:19;;;;;;;40.70;18.40;;;-4.70;99.90;;;;;;5017227;28;20045;-81
2022/12/13 06:30:45;;;;;;;43.63;18.38;;;-4.80;99.90;;;;;;5029896;28;20033;-81
2022/12/13 06:33:11;;;;;;;39.53;18.15;;;-4.80;99.90;;;;;;5029463;28;20049;-80
2022/12/13 06:35:37;;;;;;;42.40;18.77;;;-4.80;99.90;;;;;;5029094;28;20041;-80
2022/12/13 06:38:03;;;;;;;39.70;17.63;;;-4.80;99.90;;;;;;5036275;28;20037;-80
2022/12/13 06:40:29;;;;;;;41.40;18.85;;;-4.80;99.90;;;;;;5015299;28;20040;-80
2022/12/13 06:42:55;;;;;;;39.10;18.05;;;-4.70;99.90;;;;;;5033111;28;20090;-81
2022/12/13 06:45:21;;;;;;;42.67;19.10;;;-4.80;99.90;;;;;;5036218;28;20056;-80
2022/12/13 06:47:47;;;;;;;46.63;19.02;;;-4.80;99.90;;;;;;5037515;28;20049;-80
2022/12/13 06:50:15;;;;;;;47.75;20.08;;;-4.80;99.90;;;;;;5033052;28;20036;-80
2022/12/13 06:52:44;;;;;;;39.22;18.08;;;-4.80;99.90;;;;;;5040846;28;20054;-81
2022/12/13 06:55:09;;;;;;;45.58;19.70;;;-4.80;99.90;;;;;;5057909;28;20048;-80
2022/12/13 06:57:38;;;;;;;39.33;17.77;;;-4.80;99.90;;;;;;5036543;28;20047;-80
2022/12/13 07:00:04;;;;;;;46.78;20.13;;;-4.80;99.90;;;;;;5044214;28;20096;-79
2022/12/13 07:02:31;;;;;;;44.85;18.98;;;-4.70;99.90;;;;;;5037279;28;20064;-80
2022/12/13 07:04:57;;;;;;;37.45;18.27;;;-4.60;99.90;;;;;;5018943;28;20048;-80
2022/12/13 07:07:24;;;;;;;42.33;19.50;;;-4.70;99.90;;;;;;5026475;28;20394;-80
2022/12/13 07:09:50;;;;;;;40.50;18.92;;;-4.80;99.90;;;;;;5026708;28;20041;-80
2022/12/13 07:12:18;;;;;;;41.58;18.40;;;-4.70;99.90;;;;;;5035533;28;20376;-80
2022/12/13 07:14:43;;;;;;;40.42;18.27;;;-4.10;99.90;;;;;;5056213;28;20041;-80
2022/12/13 07:17:09;;;;;;;45.55;19.15;;;-4.70;99.90;;;;;;5043669;28;20074;-80
2022/12/13 07:19:39;;;;;;;41.92;19.35;;;-4.80;99.90;;;;;;5027036;28;20076;-80
2022/12/13 07:22:05;;;;;;;43.85;19.15;;;-4.70;99.90;;;;;;5044701;28;20036;-80
2022/12/13 07:24:34;;;;;;;45.80;19.55;;;-4.70;99.90;;;;;;5029631;28;20117;-80
2022/12/13 07:27:01;;;;;;;42.13;19.02;;;-4.70;99.90;;;;;;5024790;28;20076;-80
2022/12/13 07:29:27;;;;;;;49.25;19.92;;;-4.70;99.90;;;;;;5040839;28;20127;-80
2022/12/13 07:31:53;;;;;;;42.72;19.85;;;-4.70;99.90;;;;;;5040806;28;20132;-80
2022/12/13 07:34:19;;;;;;;43.33;19.15;;;-3.40;99.90;;;;;;5024976;28;20068;-80
2022/12/13 07:36:44;;;;;;;45.60;19.70;;;-4.70;99.90;;;;;;5021149;28;20056;-80
2022/12/13 07:39:10;;;;;;;46.63;20.80;;;-4.70;99.90;;;;;;5035363;28;20042;-79
2022/12/13 07:41:36;;;;;;;48.78;19.88;;;-4.70;99.90;;;;;;5021128;28;20127;-79
2022/12/13 07:44:02;;;;;;;43.88;19.88;;;-4.70;99.90;;;;;;5055133;28;20045;-81
2022/12/13 07:46:28;;;;;;;42.85;19.63;;;-4.60;99.90;;;;;;5028949;28;20078;-80
2022/12/13 07:48:54;;;;;;;45.58;19.02;;;-4.60;99.90;;;;;;5026104;28;20132;-81
2022/12/13 07:51:23;;;;;;;42.83;19.08;;;-4.70;99.90;;;;;;5058197;28;20155;-81
2022/12/13 07:53:49;;;;;;;45.20;19.20;;;-4.60;99.90;;;;;;5055203;28;20137;-80
2022/12/13 07:56:14;;;;;;;48.10;21.05;;;-4.60;99.90;;;;;;5040038;28;20128;-80
2022/12/13 07:58:41;;;;;;;40.83;18.00;;;-4.70;99.90;;;;;;5037570;28;20049;-80
2022/12/13 08:01:08;;;;;;;46.30;19.58;;;-3.00;99.90;;;;;;5022194;28;20055;-81
2022/12/13 08:03:35;;;;;;;42.38;18.23;;;-4.60;99.90;;;;;;5059282;28;20076;-81
2022/12/13 08:06:02;;;;;;;41.53;19.00;;;-4.10;99.90;;;;;;5025426;28;20037;-80
2022/12/13 08:08:29;;;;;;;44.97;20.52;;;-4.60;99.90;;;;;;5056104;28;20139;-80
2022/12/13 08:10:58;;;;;;;44.53;19.52;;;-4.10;99.90;;;;;;5055059;28;20086;-80
2022/12/13 08:13:24;;;;;;;46.95;19.35;;;-4.60;99.90;;;;;;5023744;28;20140;-80
2022/12/13 08:15:56;;;;;;;40.60;19.10;;;-4.60;99.90;;;;;;5042066;28;20119;-80
2022/12/13 08:18:21;;;;;;;;;;;-3.90;99.90;;;;;;5039975;28;20072;-81
2022/12/13 08:20:47;;;;;;;41.35;17.10;;;-3.20;99.90;;;;;;5037175;28;19971;-80
2022/12/13 08:23:13;;;;;;;45.53;19.02;;;-4.50;99.90;;;;;;5027752;28;20041;-80
2022/12/13 08:25:38;;;;;;;42.72;19.60;;;-4.50;99.90;;;;;;5045046;28;20032;-80
2022/12/13 08:28:04;;;;;;;42.17;19.95;;;-4.50;99.90;;;;;;5052005;28;20036;-80
2022/12/13 08:30:31;;;;;;;46.17;20.15;;;-4.70;99.90;;;;;;5060333;28;20049;-80
2022/12/13 08:32:57;;;;;;;42.90;20.85;;;-4.50;99.90;;;;;;5057798;28;20036;-80
2022/12/13 08:35:26;;;;;;;50.72;22.05;;;-2.80;99.90;;;;;;5036056;28;20044;-80
2022/12/13 08:37:51;;;;;;;47.38;22.17;;;-3.30;99.90;;;;;;5038818;28;20046;-80
2022/12/13 08:40:17;;;;;;;49.85;22.38;;;-4.40;99.90;;;;;;5057857;28;20033;-82
2022/12/13 08:42:43;;;;;;;46.33;20.98;;;-3.50;99.90;;;;;;5040510;28;20754;-81
2022/12/13 08:45:09;;;;;;;47.65;22.23;;;-3.00;99.90;;;;;;5039164;28;20032;-80
2022/12/13 08:47:38;;;;;;;49.75;22.25;;;-4.30;99.90;;;;;;5023110;28;20158;-81
2022/12/13 08:50:07;;;;;;;47.22;23.85;;;-4.30;99.90;;;;;;5040638;28;20040;-80
2022/12/13 08:52:34;;;;;;;50.78;23.00;;;-4.20;99.90;;;;;;5055024;28;20076;-81
2022/12/13 08:55:00;;;;;;;49.90;24.25;;;-4.20;99.90;;;;;;5041182;28;20187;-81
2022/12/13 08:57:26;;;;;;;53.17;23.25;;;-4.50;99.90;;;;;;5040818;28;20143;-81
2022/12/13 08:59:53;;;;;;;45.92;21.45;;;-3.00;99.90;;;;;;5024725;28;20040;-81
2022/12/13 09:02:19;;;;;;;55.03;24.70;;;-4.10;99.90;;;;;;5033756;28;20601;-81
2022/12/13 09:04:45;;;;;;;51.92;22.52;;;-3.60;99.90;;;;;;5019953;28;20049;-81
2022/12/13 09:07:11;;;;;;;47.40;23.85;;;-4.00;99.90;;;;;;5041366;28;20052;-81
2022/12/13 09:09:37;;;;;;;54.78;25.67;;;-2.60;99.90;;;;;;5043180;28;20047;-81
2022/12/13 09:12:03;;;;;;;48.30;22.83;;;-2.60;99.90;;;;;;5023947;28;20045;-81
2022/12/13 09:14:29;;;;;;;52.38;22.23;;;-3.90;99.90;;;;;;5041662;28;20048;-81
2022/12/13 09:16:55;;;;;;;50.10;22.35;;;-3.90;99.90;;;;;;5018607;28;20037;-81
2022/12/13 09:19:24;;;;;;;45.53;23.38;;;-3.90;99.90;;;;;;5041562;28;20056;-81
2022/12/13 09:21:49;;;;;;;51.45;22.38;;;-3.90;99.90;;;;;;5024975;28;20583;-80
2022/12/13 09:24:15;;;;;;;51.42;23.75;;;-3.90;99.90;;;;;;5048469;28;20497;-81
2022/12/13 09:26:41;;;;;;;51.95;23.40;;;-3.90;99.90;;;;;;5022860;28;20128;-81
2022/12/13 09:29:07;;;;;;;57.67;26.33;;;-2.40;99.90;;;;;;5054995;28;20037;-80
2022/12/13 09:31:34;;;;;;;52.28;24.17;;;-3.80;99.90;;;;;;5026300;28;20040;-81
2022/12/13 09:34:00;;;;;;;52.75;23.73;;;-3.70;99.90;;;;;;5022606;28;20093;-81
2022/12/13 09:36:26;;;;;;;47.88;22.63;;;-3.20;99.90;;;;;;5026108;28;20501;-81
2022/12/13 09:38:54;;;;;;;52.05;24.00;;;-2.10;99.90;;;;;;5039453;28;20045;-81
2022/12/13 09:41:43;;;;;;;51.42;24.20;;;-2.40;99.90;;;;;;5022370;28;20114;-81
2022/12/13 09:44:21;;;;;;;51.20;23.58;;;-3.70;99.90;;;;;;5018130;28;20048;-81
2022/12/13 09:46:48;;;;;;;47.50;22.52;;;-2.00;99.90;;;;;;5036274;28;20032;-81
2022/12/13 09:49:43;;;;;;;47.80;21.63;;;-2.10;99.90;;;;;;5060569;28;20048;-81
2022/12/13 09:52:17;;;;;;;50.40;23.77;;;-3.50;99.90;;;;;;5039746;28;20055;-82
2022/12/13 09:54:44;;;;;;;46.92;22.65;;;-3.40;99.90;;;;;;5020731;28;20044;-82
2022/12/13 09:57:25;;;;;;;47.75;23.25;;;-1.40;99.90;;;;;;5024633;28;20085;-83
2022/12/13 09:59:51;;;;;;;48.50;23.50;;;-3.50;99.90;;;;;;5050015;28;20124;-83
2022/12/13 10:02:22;;;;;;;51.83;24.15;;;-3.50;99.90;;;;;;5043747;28;20178;-82
2022/12/13 10:04:47;;;;;;;50.05;23.65;;;-1.80;99.90;;;;;;5018976;28;20037;-82
2022/12/13 10:07:19;;;;;;;49.35;23.38;;;-2.00;99.90;;;;;;5043810;28;20043;-82
2022/12/13 10:09:45;;;;;;;53.90;24.50;;;-3.10;99.90;;;;;;5048399;28;20052;-83
2022/12/13 10:12:15;;;;;;;58.65;25.02;;;-2.50;99.90;;;;;;5038245;28;20048;-81
2022/12/13 10:15:01;;;;;;;49.90;22.95;;;-3.00;99.90;;;;;;5018122;28;20052;-81
2022/12/13 10:17:33;;;;;;;45.13;22.27;;;-3.00;99.90;;;;;;5030726;28;20041;-82
2022/12/13 10:19:59;;;;;;;47.25;22.60;;;-2.30;99.90;;;;;;5018773;28;20401;-81
2022/12/13 10:22:25;;;;;;;49.95;23.27;;;-2.90;99.90;;;;;;5030224;28;20063;-82
2022/12/13 10:25:09;;;;;;;52.80;25.45;;;-2.80;99.90;;;;;;5051526;28;20086;-81
2022/12/13 10:27:46;;;;;;;57.53;25.52;;;-2.80;99.90;;;;;;5024015;28;20048;-81
2022/12/13 10:30:21;;;;;;;66.28;27.35;;;-2.70;99.90;;;;;;5020007;28;20045;-82
2022/12/13 10:32:57;;;;;;;54.63;24.42;;;-2.70;99.90;;;;;;5037783;28;20123;-81
2022/12/13 10:35:37;;;;;;;49.35;24.42;;;-2.60;99.90;;;;;;5024514;28;20039;-82
2022/12/13 10:38:34;;;;;;;44.97;21.98;;;-2.50;99.90;;;;;;5035273;28;20397;-82
2022/12/13 10:41:00;;;;;;;49.45;22.88;;;-1.90;99.90;;;;;;5021352;28;20090;-81
2022/12/13 10:43:26;;;;;;;48.58;22.40;;;-2.40;99.90;;;;;;5042230;28;20763;-82
2022/12/13 10:45:56;;;;;;;49.22;21.80;;;-1.80;99.90;;;;;;5056654;28;20492;-81
2022/12/13 10:48:37;;;;;;;48.03;23.17;;;-2.30;99.90;;;;;;5017207;28;20318;-83
2022/12/13 10:51:12;;;;;;;44.45;22.10;;;-2.20;99.90;;;;;;5042172;28;20048;-82
2022/12/13 10:53:53;;;;;;;45.80;21.80;;;-2.30;99.90;;;;;;5015324;28;20350;-82
2022/12/13 10:56:36;;;;;;;45.72;21.27;;;-2.20;99.90;;;;;;5044951;28;20049;-82
2022/12/13 10:59:11;;;;;;;43.10;21.92;;;-0.40;99.90;;;;;;5019727;28;20053;-82
2022/12/13 11:01:37;;;;;;;43.25;20.83;;;-2.20;99.90;;;;;;5032594;28;20033;-82
2022/12/13 11:04:39;;;;;;;44.83;21.73;;;-2.10;99.90;;;;;;5024193;28;20082;-82
2022/12/13 11:07:31;;;;;;;47.55;22.40;;;-2.10;99.90;;;;;;5037703;28;20738;-84
2022/12/13 11:10:14;;;;;;;41.45;21.20;;;-2.00;99.90;;;;;;5047667;28;20055;-84
2022/12/13 11:12:41;;;;;;;43.25;19.85;;;-0.50;99.90;;;;;;5024608;28;20479;-82
2022/12/13 11:15:07;;;;;;;46.92;21.00;;;-1.00;99.90;;;;;;5035970;28;20149;-82
2022/12/13 11:30:14;;;;;;;42.33;19.23;;;-2.30;99.90;;;;;;4877880;29;20044;-82
2022/12/13 11:32:58;;;;;;;42.05;20.17;;;-1.70;99.90;;;;;;4891766;29;20059;-83
2022/12/13 11:35:45;;;;;;;42.58;20.65;;;-2.10;99.90;;;;;;4907209;29;20060;-82
2022/12/13 11:38:25;;;;;;;40.20;19.35;;;-1.60;99.90;;;;;;4915834;29;20126;-83
2022/12/13 11:41:23;;;;;;;39.80;18.45;;;-1.50;99.90;;;;;;4906002;29;20060;-83
2022/12/13 11:47:38;;;;;;;41.83;20.75;;;-2.10;99.90;;;;;;4963545;28;20057;-82
2022/12/13 11:50:16;;;;;;;41.70;20.08;;;-1.50;99.90;;;;;;5060153;28;20045;-83
2022/12/13 11:52:54;;;;;;;36.25;19.25;;;-1.40;99.90;;;;;;5013373;28;20072;-83
2022/12/13 11:59:27;;;;;;;38.95;19.25;;;-1.30;99.90;;;;;;5014768;28;20072;-82
2022/12/13 12:02:15;;;;;;;37.90;19.00;;;-1.30;99.90;;;;;;5043058;28;20036;-82
2022/12/13 12:04:51;;;;;;;38.20;20.30;;;-1.30;99.90;;;;;;5017987;28;20061;-82
2022/12/13 12:07:24;;;;;;;42.65;19.83;;;-1.20;99.90;;;;;;5056944;28;20052;-82
2022/12/13 12:47:41;;;;;;;;;;;;;;;;;;;;;
2022/12/13 12:50:22;;;;;;;34.58;16.55;;;-0.70;99.90;;;;;;4918732;29;20313;-81
2022/12/13 12:56:53;;;;;;;33.90;15.90;;;-0.70;99.90;;;;;;4916858;29;20146;-81
2022/12/13 13:00:13;;;;;;;;;;;;;;;;;;;;;
2022/12/13 13:03:59;;;;;;;32.33;15.75;;;-1.80;99.90;;;;;;4903165;29;20055;-81
2022/12/13 13:07:31;;;;;;;29.33;15.18;;;-1.80;99.90;;;;;;4882564;29;20504;-81
2022/12/13 13:10:28;;;;;;;31.88;15.75;;;-0.40;99.90;;;;;;4847658;29;20052;-80
2022/12/13 13:13:44;;;;;;;31.02;14.85;;;-0.60;99.90;;;;;;4963633;28;20140;-80
2022/12/13 13:24:42;;;;;;;35.40;16.55;;;-0.10;99.90;;;;;;4910960;28;20052;-80
2022/12/13 13:28:04;;;;;;;;;;;;;;;;;;;;;
2022/12/13 13:31:00;;;;;;;31.73;16.45;;;-0.40;99.90;;;;;;4976517;28;20731;-80
2022/12/13 13:42:17;;;;;;;34.38;16.83;;;1.00;99.90;;;;;;5001235;28;20041;-81
2022/12/13 13:49:26;;;;;;;36.75;17.55;;;-1.00;99.90;;;;;;5000441;28;20065;-80
2022/12/13 13:52:25;;;;;;;33.92;16.70;;;-1.70;99.90;;;;;;4950913;28;20050;-81
2022/12/13 13:55:55;;;;;;;31.40;16.88;;;1.00;99.90;;;;;;4998196;28;20586;-81
2022/12/13 13:59:13;;;;;;;31.73;16.50;;;-0.60;99.90;;;;;;4968617;28;20722;-80
2022/12/13 14:02:33;;;;;;;33.17;17.00;;;0.50;99.90;;;;;;4900643;29;20126;-81
2022/12/13 14:05:47;;;;;;;31.25;15.90;;;-0.60;99.90;;;;;;4903670;28;20061;-80
2022/12/13 14:12:46;;;;;;;32.38;16.13;;;-0.20;99.90;;;;;;4893647;28;20049;-82
2022/12/13 14:15:46;;;;;;;31.77;16.10;;;-0.60;99.90;;;;;;4979599;28;20057;-81
2022/12/13 14:18:36;;;;;;;31.60;16.02;;;-0.60;99.90;;;;;;5007632;28;20045;-81
2022/12/13 14:21:25;;;;;;;36.65;18.33;;;-0.60;99.90;;;;;;5000030;28;20049;-81
2022/12/13 14:24:41;;;;;;;35.97;17.23;;;-0.60;99.90;;;;;;5014016;28;20037;-81
2022/12/13 14:27:26;;;;;;;32.15;16.90;;;-0.60;99.90;;;;;;4937439;28;20043;-80
2022/12/13 14:29:52;;;;;;;34.22;17.70;;;-0.60;99.90;;;;;;4932240;28;20054;-81